GBHFJ EGCC-EGNV
Flight info
| Callsign | GBHFJ |
|---|---|
| Flight time | 1h 19m |
| Altitude | 5000 |
| Route | POL |
| Aircraft | P28R/L-SDFGR/S |
Departure
| Time | 2026-05-05 07:51 |
|---|---|
| Airport | Manchester Airport (EGCC) |
Arrival
| Time | 2026-05-05 09:10 |
|---|---|
| Airport | Teesside International Airport (EGNV) |
| Time | Latitude | Longitude | Altitude | Speed | Heading |
|---|---|---|---|---|---|
| 2026-05-05 07:35 | 53.35572 | -2.28149 | 230 ft | 0 kts | 142° |
| 2026-05-05 07:42 | 53.35572 | -2.28148 | 230 ft | 1 kts | 142° |
| 2026-05-05 07:43 | 53.35552 | -2.28133 | 229 ft | 8 kts | 163° |
| 2026-05-05 07:43 | 53.35511 | -2.28118 | 227 ft | 2 kts | 102° |
| 2026-05-05 07:43 | 53.35533 | -2.28081 | 228 ft | 8 kts | 38° |
| 2026-05-05 07:43 | 53.35577 | -2.27998 | 231 ft | 11 kts | 50° |
| 2026-05-05 07:44 | 53.35629 | -2.27893 | 234 ft | 13 kts | 50° |
| 2026-05-05 07:44 | 53.35688 | -2.27770 | 238 ft | 14 kts | 51° |
| 2026-05-05 07:44 | 53.35724 | -2.27655 | 241 ft | 9 kts | 99° |
| 2026-05-05 07:44 | 53.35720 | -2.27636 | 242 ft | 0 kts | 111° |
| 2026-05-05 07:45 | 53.35707 | -2.27617 | 241 ft | 7 kts | 150° |
| 2026-05-05 07:45 | 53.35650 | -2.27558 | 240 ft | 10 kts | 143° |
| 2026-05-05 07:45 | 53.35574 | -2.27457 | 239 ft | 16 kts | 142° |
| 2026-05-05 07:45 | 53.35562 | -2.27442 | 239 ft | 0 kts | 143° |
| 2026-05-05 07:46 | 53.35547 | -2.27423 | 240 ft | 8 kts | 143° |
| 2026-05-05 07:46 | 53.35471 | -2.27319 | 242 ft | 20 kts | 140° |
| 2026-05-05 07:46 | 53.35366 | -2.27197 | 239 ft | 14 kts | 162° |
| 2026-05-05 07:46 | 53.35271 | -2.27207 | 233 ft | 15 kts | 194° |
| 2026-05-05 07:47 | 53.35173 | -2.27240 | 225 ft | 15 kts | 188° |
| 2026-05-05 07:47 | 53.35159 | -2.27244 | 224 ft | 0 kts | 190° |
| 2026-05-05 07:50 | 53.35094 | -2.27269 | 221 ft | 22 kts | 192° |
| 2026-05-05 07:50 | 53.34964 | -2.27413 | 219 ft | 28 kts | 231° |
| 2026-05-05 07:50 | 53.34727 | -2.27905 | 218 ft | 77 kts | 232° |
| 2026-05-05 07:50 | 53.34348 | -2.28667 | 359 ft | 89 kts | 231° |
| 2026-05-05 07:51 | 53.33928 | -2.29461 | 621 ft | 93 kts | 229° |
| 2026-05-05 07:51 | 53.33476 | -2.30257 | 886 ft | 96 kts | 227° |
| 2026-05-05 07:51 | 53.32988 | -2.31039 | 1204 ft | 98 kts | 225° |
| 2026-05-05 07:51 | 53.32444 | -2.31773 | 1470 ft | 103 kts | 220° |
| 2026-05-05 07:52 | 53.31973 | -2.32630 | 1756 ft | 100 kts | 244° |
| 2026-05-05 07:52 | 53.31766 | -2.33704 | 1972 ft | 98 kts | 267° |
| 2026-05-05 07:52 | 53.31703 | -2.34826 | 2195 ft | 96 kts | 270° |
| 2026-05-05 07:52 | 53.31695 | -2.35949 | 2381 ft | 96 kts | 279° |
| 2026-05-05 07:53 | 53.31864 | -2.37001 | 2584 ft | 93 kts | 300° |
| 2026-05-05 07:53 | 53.32259 | -2.37824 | 2792 ft | 89 kts | 321° |
| 2026-05-05 07:53 | 53.32797 | -2.38317 | 2973 ft | 88 kts | 343° |
| 2026-05-05 07:53 | 53.33374 | -2.38541 | 3158 ft | 89 kts | 346° |
| 2026-05-05 07:54 | 53.34004 | -2.38890 | 3336 ft | 92 kts | 342° |
| 2026-05-05 07:54 | 53.34596 | -2.39266 | 3543 ft | 94 kts | 338° |
| 2026-05-05 07:54 | 53.35209 | -2.39631 | 3771 ft | 92 kts | 340° |
| 2026-05-05 07:54 | 53.35812 | -2.40055 | 3949 ft | 97 kts | 336° |
| 2026-05-05 07:55 | 53.36407 | -2.40530 | 4178 ft | 94 kts | 342° |
| 2026-05-05 07:55 | 53.37035 | -2.40873 | 4350 ft | 94 kts | 347° |
| 2026-05-05 07:55 | 53.37652 | -2.41202 | 4522 ft | 93 kts | 344° |
| 2026-05-05 07:55 | 53.38236 | -2.41676 | 4658 ft | 95 kts | 336° |
| 2026-05-05 07:56 | 53.38811 | -2.42232 | 4804 ft | 95 kts | 337° |
| 2026-05-05 07:56 | 53.39420 | -2.42664 | 4944 ft | 96 kts | 346° |
| 2026-05-05 07:56 | 53.40088 | -2.42962 | 5002 ft | 104 kts | 347° |
| 2026-05-05 07:56 | 53.40784 | -2.43282 | 5139 ft | 103 kts | 346° |
| 2026-05-05 07:57 | 53.41473 | -2.43849 | 5053 ft | 119 kts | 338° |
| 2026-05-05 07:57 | 53.42269 | -2.44273 | 5084 ft | 120 kts | 351° |
| 2026-05-05 07:57 | 53.43075 | -2.44545 | 5070 ft | 125 kts | 352° |
| 2026-05-05 07:57 | 53.43931 | -2.44794 | 5079 ft | 124 kts | 353° |
| 2026-05-05 07:58 | 53.44791 | -2.45083 | 5007 ft | 128 kts | 349° |
| 2026-05-05 07:58 | 53.45670 | -2.45393 | 4961 ft | 130 kts | 352° |
| 2026-05-05 07:58 | 53.46555 | -2.45648 | 4955 ft | 128 kts | 355° |
| 2026-05-05 07:58 | 53.47426 | -2.45451 | 4960 ft | 129 kts | 22° |
| 2026-05-05 07:59 | 53.48190 | -2.44642 | 4942 ft | 132 kts | 37° |
| 2026-05-05 07:59 | 53.48926 | -2.43727 | 4919 ft | 131 kts | 34° |
| 2026-05-05 07:59 | 53.49671 | -2.42845 | 4888 ft | 132 kts | 37° |
| 2026-05-05 07:59 | 53.50386 | -2.41897 | 4860 ft | 132 kts | 40° |
| 2026-05-05 08:00 | 53.51129 | -2.41035 | 4891 ft | 128 kts | 34° |
| 2026-05-05 08:00 | 53.51849 | -2.40113 | 4818 ft | 134 kts | 42° |
| 2026-05-05 08:00 | 53.52286 | -2.39374 | 4794 ft | 134 kts | 47° |
| 2026-05-05 08:00 | 53.52990 | -2.37628 | 4698 ft | 138 kts | 59° |
| 2026-05-05 08:01 | 53.53671 | -2.36549 | 4721 ft | 128 kts | 37° |
| 2026-05-05 08:01 | 53.54331 | -2.35609 | 4861 ft | 120 kts | 40° |
| 2026-05-05 08:01 | 53.54985 | -2.34736 | 4939 ft | 118 kts | 38° |
| 2026-05-05 08:01 | 53.55634 | -2.33902 | 4985 ft | 121 kts | 37° |
| 2026-05-05 08:02 | 53.56306 | -2.33045 | 4986 ft | 124 kts | 37° |
| 2026-05-05 08:02 | 53.57004 | -2.32161 | 4986 ft | 126 kts | 37° |
| 2026-05-05 08:02 | 53.57709 | -2.31269 | 4986 ft | 127 kts | 37° |
| 2026-05-05 08:02 | 53.58417 | -2.30372 | 4986 ft | 128 kts | 37° |
| 2026-05-05 08:03 | 53.59129 | -2.29475 | 4986 ft | 128 kts | 37° |
| 2026-05-05 08:03 | 53.59841 | -2.28573 | 4985 ft | 129 kts | 37° |
| 2026-05-05 08:03 | 53.60560 | -2.27665 | 4982 ft | 129 kts | 37° |
| 2026-05-05 08:03 | 53.61279 | -2.26756 | 4980 ft | 129 kts | 37° |
| 2026-05-05 08:04 | 53.61992 | -2.25854 | 4981 ft | 129 kts | 37° |
| 2026-05-05 08:04 | 53.62698 | -2.24962 | 4980 ft | 127 kts | 37° |
| 2026-05-05 08:04 | 53.63394 | -2.24088 | 4981 ft | 124 kts | 37° |
| 2026-05-05 08:04 | 53.64080 | -2.23222 | 4981 ft | 123 kts | 37° |
| 2026-05-05 08:05 | 53.64759 | -2.22364 | 4983 ft | 122 kts | 37° |
| 2026-05-05 08:05 | 53.65439 | -2.21506 | 4983 ft | 123 kts | 37° |
| 2026-05-05 08:05 | 53.66123 | -2.20639 | 4983 ft | 122 kts | 38° |
| 2026-05-05 08:05 | 53.66801 | -2.19779 | 4983 ft | 121 kts | 37° |
| 2026-05-05 08:06 | 53.67479 | -2.18920 | 4984 ft | 122 kts | 37° |
| 2026-05-05 08:06 | 53.68164 | -2.18053 | 4983 ft | 123 kts | 38° |
| 2026-05-05 08:06 | 53.68847 | -2.17184 | 4982 ft | 125 kts | 38° |
| 2026-05-05 08:06 | 53.69541 | -2.16305 | 4983 ft | 124 kts | 37° |
| 2026-05-05 08:07 | 53.70225 | -2.15433 | 4981 ft | 124 kts | 37° |
| 2026-05-05 08:07 | 53.70907 | -2.14569 | 4981 ft | 122 kts | 37° |
| 2026-05-05 08:07 | 53.71585 | -2.13711 | 4982 ft | 121 kts | 37° |
| 2026-05-05 08:07 | 53.72241 | -2.12831 | 4985 ft | 121 kts | 41° |
| 2026-05-05 08:08 | 53.72880 | -2.11908 | 4979 ft | 121 kts | 41° |
| 2026-05-05 08:08 | 53.73443 | -2.11096 | 4978 ft | 121 kts | 41° |
| 2026-05-05 08:08 | 53.74080 | -2.10179 | 4978 ft | 121 kts | 41° |
| 2026-05-05 08:08 | 53.74719 | -2.09260 | 4979 ft | 120 kts | 41° |
| 2026-05-05 08:09 | 53.75352 | -2.08347 | 4984 ft | 119 kts | 41° |
| 2026-05-05 08:09 | 53.75967 | -2.07465 | 4977 ft | 121 kts | 41° |
| 2026-05-05 08:09 | 53.76605 | -2.06544 | 4977 ft | 120 kts | 41° |
| 2026-05-05 08:09 | 53.77301 | -2.05783 | 4941 ft | 120 kts | 15° |
| 2026-05-05 08:10 | 53.78088 | -2.05431 | 4976 ft | 120 kts | 33° |
| 2026-05-05 08:10 | 53.78758 | -2.04578 | 4979 ft | 121 kts | 34° |
| 2026-05-05 08:10 | 53.79501 | -2.03935 | 4943 ft | 121 kts | 10° |
| 2026-05-05 08:10 | 53.80320 | -2.04085 | 4986 ft | 118 kts | 0° |
| 2026-05-05 08:11 | 53.81125 | -2.03801 | 4992 ft | 121 kts | 26° |
| 2026-05-05 08:11 | 53.81930 | -2.03458 | 4965 ft | 119 kts | 2° |
| 2026-05-05 08:11 | 53.82703 | -2.02999 | 4979 ft | 120 kts | 31° |
| 2026-05-05 08:11 | 53.83455 | -2.02385 | 4978 ft | 121 kts | 28° |
| 2026-05-05 08:12 | 53.84202 | -2.01722 | 4977 ft | 121 kts | 28° |
| 2026-05-05 08:12 | 53.84949 | -2.01074 | 4976 ft | 121 kts | 28° |
| 2026-05-05 08:12 | 53.85701 | -2.00419 | 4976 ft | 122 kts | 28° |
| 2026-05-05 08:12 | 53.86454 | -1.99767 | 4976 ft | 124 kts | 28° |
| 2026-05-05 08:13 | 53.87221 | -1.99104 | 4975 ft | 124 kts | 28° |
| 2026-05-05 08:13 | 53.87986 | -1.98442 | 4975 ft | 123 kts | 27° |
| 2026-05-05 08:13 | 53.88752 | -1.97781 | 4976 ft | 124 kts | 28° |
| 2026-05-05 08:13 | 53.89519 | -1.97114 | 4975 ft | 124 kts | 28° |
| 2026-05-05 08:14 | 53.90291 | -1.96447 | 4976 ft | 124 kts | 28° |
| 2026-05-05 08:14 | 53.91054 | -1.95784 | 4978 ft | 123 kts | 28° |
| 2026-05-05 08:14 | 53.91796 | -1.95053 | 4977 ft | 123 kts | 31° |
| 2026-05-05 08:14 | 53.92528 | -1.94318 | 4978 ft | 122 kts | 31° |
| 2026-05-05 08:15 | 53.93261 | -1.93591 | 4972 ft | 122 kts | 32° |
| 2026-05-05 08:15 | 53.93988 | -1.92884 | 4972 ft | 122 kts | 31° |
| 2026-05-05 08:15 | 53.94726 | -1.92142 | 4971 ft | 121 kts | 32° |
| 2026-05-05 08:15 | 53.95441 | -1.91421 | 4973 ft | 121 kts | 32° |
| 2026-05-05 08:16 | 53.96166 | -1.90685 | 4972 ft | 122 kts | 31° |
| 2026-05-05 08:16 | 53.96904 | -1.89944 | 4973 ft | 124 kts | 32° |
| 2026-05-05 08:16 | 53.97654 | -1.89203 | 4973 ft | 125 kts | 31° |
| 2026-05-05 08:16 | 53.98407 | -1.88456 | 4971 ft | 125 kts | 31° |
| 2026-05-05 08:17 | 53.99153 | -1.87693 | 4972 ft | 125 kts | 32° |
| 2026-05-05 08:17 | 53.99899 | -1.86930 | 4967 ft | 125 kts | 31° |
| 2026-05-05 08:17 | 54.00643 | -1.86182 | 4967 ft | 124 kts | 32° |
| 2026-05-05 08:17 | 54.01387 | -1.85443 | 4967 ft | 124 kts | 31° |
| 2026-05-05 08:18 | 54.02122 | -1.84693 | 4968 ft | 122 kts | 31° |
| 2026-05-05 08:18 | 54.02850 | -1.83942 | 4967 ft | 122 kts | 31° |
| 2026-05-05 08:18 | 54.03574 | -1.83203 | 4967 ft | 121 kts | 31° |
| 2026-05-05 08:18 | 54.04286 | -1.82477 | 4962 ft | 121 kts | 34° |
| 2026-05-05 08:19 | 54.05006 | -1.81756 | 4965 ft | 120 kts | 33° |
| 2026-05-05 08:19 | 54.05721 | -1.81037 | 4965 ft | 119 kts | 32° |
| 2026-05-05 08:19 | 54.06431 | -1.80314 | 4963 ft | 119 kts | 32° |
| 2026-05-05 08:19 | 54.07141 | -1.79600 | 4965 ft | 118 kts | 32° |
| 2026-05-05 08:20 | 54.07846 | -1.78891 | 4965 ft | 118 kts | 33° |
| 2026-05-05 08:20 | 54.08556 | -1.78191 | 4968 ft | 118 kts | 32° |
| 2026-05-05 08:20 | 54.09266 | -1.77475 | 4966 ft | 119 kts | 32° |
| 2026-05-05 08:20 | 54.09969 | -1.76753 | 4966 ft | 118 kts | 34° |
| 2026-05-05 08:21 | 54.10438 | -1.76280 | 4963 ft | 119 kts | 32° |
| 2026-05-05 08:21 | 54.11154 | -1.75565 | 4966 ft | 120 kts | 33° |
| 2026-05-05 08:21 | 54.11877 | -1.74858 | 4967 ft | 119 kts | 33° |
| 2026-05-05 08:21 | 54.12591 | -1.74140 | 4966 ft | 119 kts | 32° |
| 2026-05-05 08:22 | 54.13304 | -1.73420 | 4968 ft | 119 kts | 33° |
| 2026-05-05 08:22 | 54.14239 | -1.72466 | 4963 ft | 118 kts | 32° |
| 2026-05-05 08:22 | 54.14944 | -1.71758 | 4962 ft | 118 kts | 33° |
| 2026-05-05 08:22 | 54.15426 | -1.71290 | 4964 ft | 118 kts | 32° |
| 2026-05-05 08:23 | 54.16130 | -1.70577 | 4961 ft | 118 kts | 33° |
| 2026-05-05 08:23 | 54.16820 | -1.69876 | 4963 ft | 117 kts | 34° |
| 2026-05-05 08:23 | 54.17519 | -1.69165 | 4963 ft | 117 kts | 33° |
| 2026-05-05 08:23 | 54.18227 | -1.68457 | 4964 ft | 118 kts | 33° |
| 2026-05-05 08:24 | 54.18941 | -1.67753 | 4961 ft | 119 kts | 32° |
| 2026-05-05 08:24 | 54.19657 | -1.67038 | 4962 ft | 119 kts | 31° |
| 2026-05-05 08:24 | 54.20381 | -1.66323 | 4964 ft | 121 kts | 31° |
| 2026-05-05 08:24 | 54.21103 | -1.65575 | 4964 ft | 121 kts | 32° |
| 2026-05-05 08:25 | 54.21815 | -1.64852 | 4964 ft | 121 kts | 32° |
| 2026-05-05 08:25 | 54.22549 | -1.64113 | 4964 ft | 121 kts | 31° |
| 2026-05-05 08:25 | 54.23260 | -1.63388 | 4962 ft | 121 kts | 31° |
| 2026-05-05 08:25 | 54.23980 | -1.62652 | 4963 ft | 120 kts | 31° |
| 2026-05-05 08:26 | 54.24675 | -1.61948 | 4963 ft | 120 kts | 32° |
| 2026-05-05 08:26 | 54.25393 | -1.61236 | 4962 ft | 120 kts | 32° |
| 2026-05-05 08:26 | 54.26116 | -1.60515 | 4939 ft | 122 kts | 34° |
| 2026-05-05 08:26 | 54.26827 | -1.59609 | 4691 ft | 131 kts | 40° |
| 2026-05-05 08:27 | 54.27488 | -1.58575 | 4585 ft | 129 kts | 46° |
| 2026-05-05 08:27 | 54.28114 | -1.57501 | 4527 ft | 125 kts | 44° |
| 2026-05-05 08:27 | 54.28846 | -1.56696 | 4368 ft | 129 kts | 25° |
| 2026-05-05 08:27 | 54.29674 | -1.56072 | 4163 ft | 134 kts | 24° |
| 2026-05-05 08:28 | 54.30549 | -1.55570 | 4010 ft | 132 kts | 17° |
| 2026-05-05 08:28 | 54.31436 | -1.55383 | 3848 ft | 128 kts | 356° |
| 2026-05-05 08:28 | 54.32328 | -1.55644 | 3653 ft | 131 kts | 354° |
| 2026-05-05 08:28 | 54.33214 | -1.55822 | 3544 ft | 127 kts | 359° |
| 2026-05-05 08:29 | 54.34110 | -1.55889 | 3342 ft | 129 kts | 357° |
| 2026-05-05 08:29 | 54.34975 | -1.56214 | 3223 ft | 125 kts | 351° |
| 2026-05-05 08:29 | 54.35850 | -1.56455 | 3004 ft | 128 kts | 350° |
| 2026-05-05 08:30 | 54.37334 | -1.57966 | 2769 ft | 127 kts | 317° |
| 2026-05-05 08:30 | 54.37803 | -1.59266 | 2602 ft | 130 kts | 305° |
| 2026-05-05 08:30 | 54.38202 | -1.60654 | 2483 ft | 129 kts | 302° |
| 2026-05-05 08:30 | 54.38598 | -1.61991 | 2492 ft | 123 kts | 303° |
| 2026-05-05 08:31 | 54.39066 | -1.63198 | 2476 ft | 120 kts | 316° |
| 2026-05-05 08:31 | 54.39648 | -1.64181 | 2470 ft | 117 kts | 324° |
| 2026-05-05 08:31 | 54.40280 | -1.65075 | 2446 ft | 118 kts | 325° |
| 2026-05-05 08:31 | 54.40889 | -1.65994 | 2470 ft | 115 kts | 323° |
| 2026-05-05 08:32 | 54.41454 | -1.66958 | 2463 ft | 115 kts | 317° |
| 2026-05-05 08:32 | 54.42006 | -1.67946 | 2450 ft | 115 kts | 322° |
| 2026-05-05 08:32 | 54.42602 | -1.68852 | 2485 ft | 113 kts | 326° |
| 2026-05-05 08:32 | 54.43219 | -1.69676 | 2516 ft | 113 kts | 326° |
| 2026-05-05 08:33 | 54.43849 | -1.70483 | 2531 ft | 114 kts | 331° |
| 2026-05-05 08:33 | 54.44578 | -1.70978 | 2532 ft | 115 kts | 350° |
| 2026-05-05 08:33 | 54.45367 | -1.71195 | 2512 ft | 116 kts | 355° |
| 2026-05-05 08:33 | 54.46175 | -1.71359 | 2509 ft | 117 kts | 353° |
| 2026-05-05 08:34 | 54.46976 | -1.71600 | 2536 ft | 116 kts | 352° |
| 2026-05-05 08:34 | 54.47756 | -1.71869 | 2555 ft | 115 kts | 352° |
| 2026-05-05 08:34 | 54.48558 | -1.72123 | 2541 ft | 117 kts | 353° |
| 2026-05-05 08:34 | 54.49345 | -1.72352 | 2551 ft | 115 kts | 353° |
| 2026-05-05 08:35 | 54.50146 | -1.72601 | 2524 ft | 118 kts | 353° |
| 2026-05-05 08:35 | 54.50969 | -1.72748 | 2471 ft | 121 kts | 3° |
| 2026-05-05 08:35 | 54.51808 | -1.72511 | 2461 ft | 122 kts | 14° |
| 2026-05-05 08:35 | 54.52606 | -1.72155 | 2472 ft | 119 kts | 14° |
| 2026-05-05 08:36 | 54.53411 | -1.71796 | 2415 ft | 119 kts | 15° |
| 2026-05-05 08:36 | 54.54217 | -1.71518 | 2427 ft | 117 kts | 10° |
| 2026-05-05 08:36 | 54.55021 | -1.71325 | 2420 ft | 115 kts | 8° |
| 2026-05-05 08:36 | 54.55800 | -1.71015 | 2401 ft | 116 kts | 17° |
| 2026-05-05 08:37 | 54.56552 | -1.70583 | 2421 ft | 113 kts | 19° |
| 2026-05-05 08:37 | 54.57278 | -1.70096 | 2424 ft | 112 kts | 22° |
| 2026-05-05 08:37 | 54.57975 | -1.69477 | 2431 ft | 114 kts | 34° |
| 2026-05-05 08:37 | 54.58541 | -1.68522 | 2444 ft | 115 kts | 48° |
| 2026-05-05 08:38 | 54.59087 | -1.67578 | 2504 ft | 112 kts | 41° |
| 2026-05-05 08:38 | 54.59689 | -1.66718 | 2557 ft | 111 kts | 38° |
| 2026-05-05 08:38 | 54.60305 | -1.65933 | 2618 ft | 110 kts | 31° |
| 2026-05-05 08:38 | 54.61004 | -1.65353 | 2570 ft | 114 kts | 25° |
| 2026-05-05 08:39 | 54.61745 | -1.64764 | 2518 ft | 120 kts | 25° |
| 2026-05-05 08:39 | 54.62465 | -1.64094 | 2563 ft | 117 kts | 33° |
| 2026-05-05 08:39 | 54.63102 | -1.63134 | 2500 ft | 125 kts | 46° |
| 2026-05-05 08:39 | 54.63620 | -1.61913 | 2438 ft | 129 kts | 59° |
| 2026-05-05 08:40 | 54.64001 | -1.60534 | 2445 ft | 124 kts | 66° |
| 2026-05-05 08:40 | 54.64238 | -1.59094 | 2422 ft | 125 kts | 76° |
| 2026-05-05 08:40 | 54.64434 | -1.57662 | 2429 ft | 122 kts | 71° |
| 2026-05-05 08:40 | 54.64744 | -1.56302 | 2400 ft | 122 kts | 66° |
| 2026-05-05 08:41 | 54.65063 | -1.54964 | 2433 ft | 119 kts | 65° |
| 2026-05-05 08:41 | 54.65440 | -1.53730 | 2495 ft | 114 kts | 53° |
| 2026-05-05 08:41 | 54.65947 | -1.52702 | 2539 ft | 111 kts | 48° |
| 2026-05-05 08:41 | 54.66437 | -1.51689 | 2562 ft | 112 kts | 50° |
| 2026-05-05 08:42 | 54.66920 | -1.50586 | 2552 ft | 118 kts | 53° |
| 2026-05-05 08:42 | 54.67326 | -1.49340 | 2551 ft | 121 kts | 65° |
| 2026-05-05 08:42 | 54.67573 | -1.47935 | 2549 ft | 123 kts | 70° |
| 2026-05-05 08:42 | 54.67841 | -1.46510 | 2514 ft | 126 kts | 71° |
| 2026-05-05 08:43 | 54.68000 | -1.45046 | 2556 ft | 125 kts | 83° |
| 2026-05-05 08:43 | 54.68031 | -1.43520 | 2514 ft | 129 kts | 87° |
| 2026-05-05 08:43 | 54.68000 | -1.41980 | 2541 ft | 127 kts | 94° |
| 2026-05-05 08:43 | 54.67832 | -1.40455 | 2514 ft | 131 kts | 102° |
| 2026-05-05 08:44 | 54.67582 | -1.38924 | 2483 ft | 133 kts | 104° |
| 2026-05-05 08:44 | 54.67295 | -1.37407 | 2473 ft | 132 kts | 107° |
| 2026-05-05 08:44 | 54.67017 | -1.35895 | 2450 ft | 132 kts | 105° |
| 2026-05-05 08:44 | 54.66767 | -1.34366 | 2437 ft | 132 kts | 103° |
| 2026-05-05 08:45 | 54.66570 | -1.32827 | 2435 ft | 131 kts | 99° |
| 2026-05-05 08:45 | 54.66397 | -1.31302 | 2434 ft | 129 kts | 100° |
| 2026-05-05 08:45 | 54.66220 | -1.29782 | 2401 ft | 129 kts | 100° |
| 2026-05-05 08:45 | 54.66041 | -1.28285 | 2403 ft | 129 kts | 99° |
| 2026-05-05 08:46 | 54.65823 | -1.26813 | 2455 ft | 126 kts | 107° |
| 2026-05-05 08:46 | 54.65405 | -1.25468 | 2461 ft | 128 kts | 121° |
| 2026-05-05 08:46 | 54.64873 | -1.24233 | 2465 ft | 128 kts | 128° |
| 2026-05-05 08:46 | 54.64264 | -1.23103 | 2468 ft | 129 kts | 136° |
| 2026-05-05 08:47 | 54.63559 | -1.22127 | 2460 ft | 131 kts | 142° |
| 2026-05-05 08:47 | 54.62821 | -1.21210 | 2502 ft | 129 kts | 152° |
| 2026-05-05 08:47 | 54.61957 | -1.21104 | 2567 ft | 131 kts | 204° |
| 2026-05-05 08:47 | 54.61307 | -1.22178 | 2517 ft | 132 kts | 248° |
| 2026-05-05 08:48 | 54.60871 | -1.23593 | 2455 ft | 136 kts | 243° |
| 2026-05-05 08:48 | 54.60430 | -1.25028 | 2428 ft | 136 kts | 247° |
| 2026-05-05 08:48 | 54.59803 | -1.26219 | 2518 ft | 133 kts | 231° |
| 2026-05-05 08:48 | 54.59143 | -1.27344 | 2507 ft | 136 kts | 232° |
| 2026-05-05 08:49 | 54.58513 | -1.28561 | 2533 ft | 138 kts | 235° |
| 2026-05-05 08:49 | 54.57850 | -1.29805 | 2526 ft | 139 kts | 231° |
| 2026-05-05 08:49 | 54.57174 | -1.30943 | 2534 ft | 137 kts | 230° |
| 2026-05-05 08:49 | 54.56502 | -1.32103 | 2554 ft | 136 kts | 233° |
| 2026-05-05 08:50 | 54.55893 | -1.33333 | 2581 ft | 132 kts | 237° |
| 2026-05-05 08:50 | 54.55583 | -1.34756 | 2522 ft | 131 kts | 276° |
| 2026-05-05 08:50 | 54.55944 | -1.36099 | 2467 ft | 123 kts | 323° |
| 2026-05-05 08:50 | 54.56730 | -1.36449 | 2444 ft | 118 kts | 9° |
| 2026-05-05 08:51 | 54.57466 | -1.35821 | 2434 ft | 121 kts | 34° |
| 2026-05-05 08:51 | 54.58153 | -1.35021 | 2488 ft | 116 kts | 33° |
| 2026-05-05 08:51 | 54.58802 | -1.34199 | 2516 ft | 116 kts | 36° |
| 2026-05-05 08:51 | 54.59443 | -1.33345 | 2542 ft | 120 kts | 37° |
| 2026-05-05 08:52 | 54.60111 | -1.32431 | 2513 ft | 127 kts | 36° |
| 2026-05-05 08:52 | 54.60825 | -1.31498 | 2468 ft | 132 kts | 39° |
| 2026-05-05 08:52 | 54.61265 | -1.30159 | 2484 ft | 133 kts | 77° |
| 2026-05-05 08:52 | 54.61112 | -1.28601 | 2474 ft | 137 kts | 116° |
| 2026-05-05 08:53 | 54.60342 | -1.27642 | 2433 ft | 142 kts | 164° |
| 2026-05-05 08:53 | 54.59377 | -1.27811 | 2419 ft | 142 kts | 207° |
| 2026-05-05 08:53 | 54.58612 | -1.28847 | 2437 ft | 139 kts | 230° |
| 2026-05-05 08:53 | 54.57916 | -1.29999 | 2426 ft | 139 kts | 229° |
| 2026-05-05 08:54 | 54.57210 | -1.31124 | 2438 ft | 136 kts | 226° |
| 2026-05-05 08:54 | 54.56532 | -1.32219 | 2508 ft | 132 kts | 229° |
| 2026-05-05 08:54 | 54.55908 | -1.33342 | 2532 ft | 132 kts | 233° |
| 2026-05-05 08:54 | 54.55544 | -1.34737 | 2556 ft | 125 kts | 273° |
| 2026-05-05 08:55 | 54.55868 | -1.36009 | 2502 ft | 118 kts | 325° |
| 2026-05-05 08:55 | 54.56635 | -1.36269 | 2472 ft | 116 kts | 11° |
| 2026-05-05 08:55 | 54.57368 | -1.35679 | 2480 ft | 119 kts | 32° |
| 2026-05-05 08:55 | 54.58038 | -1.34824 | 2482 ft | 120 kts | 36° |
| 2026-05-05 08:56 | 54.58688 | -1.33943 | 2516 ft | 119 kts | 37° |
| 2026-05-05 08:56 | 54.59364 | -1.33066 | 2536 ft | 123 kts | 35° |
| 2026-05-05 08:56 | 54.60059 | -1.32177 | 2528 ft | 126 kts | 37° |
| 2026-05-05 08:56 | 54.60744 | -1.31237 | 2574 ft | 127 kts | 39° |
| 2026-05-05 08:57 | 54.61344 | -1.30094 | 2527 ft | 133 kts | 64° |
| 2026-05-05 08:57 | 54.61334 | -1.28489 | 2485 ft | 140 kts | 108° |
| 2026-05-05 08:57 | 54.60733 | -1.27214 | 2452 ft | 143 kts | 147° |
| 2026-05-05 08:57 | 54.59773 | -1.26955 | 2426 ft | 142 kts | 193° |
| 2026-05-05 08:58 | 54.58928 | -1.27758 | 2404 ft | 139 kts | 227° |
| 2026-05-05 08:58 | 54.58242 | -1.28964 | 2358 ft | 139 kts | 231° |
| 2026-05-05 08:58 | 54.57586 | -1.30125 | 2449 ft | 131 kts | 230° |
| 2026-05-05 08:58 | 54.56952 | -1.31226 | 2486 ft | 131 kts | 231° |
| 2026-05-05 08:59 | 54.56333 | -1.32381 | 2505 ft | 132 kts | 234° |
| 2026-05-05 08:59 | 54.55733 | -1.33586 | 2514 ft | 133 kts | 236° |
| 2026-05-05 08:59 | 54.55183 | -1.34833 | 2529 ft | 131 kts | 240° |
| 2026-05-05 08:59 | 54.54669 | -1.36097 | 2499 ft | 125 kts | 240° |
| 2026-05-05 09:00 | 54.54172 | -1.37317 | 2442 ft | 127 kts | 242° |
| 2026-05-05 09:00 | 54.53671 | -1.38602 | 2344 ft | 131 kts | 242° |
| 2026-05-05 09:00 | 54.53142 | -1.39891 | 2234 ft | 132 kts | 242° |
| 2026-05-05 09:00 | 54.52666 | -1.41249 | 2140 ft | 131 kts | 247° |
| 2026-05-05 09:01 | 54.52273 | -1.42647 | 2033 ft | 130 kts | 251° |
| 2026-05-05 09:01 | 54.51830 | -1.44016 | 1903 ft | 133 kts | 242° |
| 2026-05-05 09:01 | 54.51297 | -1.45325 | 1776 ft | 135 kts | 240° |
| 2026-05-05 09:01 | 54.50767 | -1.46681 | 1726 ft | 136 kts | 241° |
| 2026-05-05 09:02 | 54.50230 | -1.48005 | 1685 ft | 134 kts | 239° |
| 2026-05-05 09:02 | 54.49686 | -1.49277 | 1705 ft | 131 kts | 242° |
| 2026-05-05 09:02 | 54.49195 | -1.50560 | 1724 ft | 129 kts | 244° |
| 2026-05-05 09:02 | 54.48686 | -1.51833 | 1704 ft | 129 kts | 241° |
| 2026-05-05 09:03 | 54.48185 | -1.53112 | 1685 ft | 128 kts | 242° |
| 2026-05-05 09:03 | 54.47676 | -1.54346 | 1665 ft | 126 kts | 240° |
| 2026-05-05 09:03 | 54.47162 | -1.55571 | 1658 ft | 126 kts | 241° |
| 2026-05-05 09:03 | 54.46675 | -1.56804 | 1668 ft | 125 kts | 243° |
| 2026-05-05 09:04 | 54.46193 | -1.58045 | 1662 ft | 125 kts | 242° |
| 2026-05-05 09:04 | 54.45733 | -1.59308 | 1682 ft | 124 kts | 242° |
| 2026-05-05 09:04 | 54.45259 | -1.60547 | 1682 ft | 125 kts | 243° |
| 2026-05-05 09:04 | 54.44691 | -1.61678 | 1696 ft | 128 kts | 219° |
| 2026-05-05 09:05 | 54.43805 | -1.61842 | 1662 ft | 135 kts | 162° |
| 2026-05-05 09:05 | 54.43095 | -1.60900 | 1655 ft | 131 kts | 121° |
| 2026-05-05 09:05 | 54.42764 | -1.59495 | 1678 ft | 125 kts | 95° |
| 2026-05-05 09:05 | 54.42893 | -1.58082 | 1661 ft | 120 kts | 55° |
| 2026-05-05 09:06 | 54.43399 | -1.56944 | 1632 ft | 119 kts | 46° |
| 2026-05-05 09:06 | 54.43916 | -1.55873 | 1640 ft | 113 kts | 48° |
| 2026-05-05 09:06 | 54.44421 | -1.54871 | 1575 ft | 109 kts | 46° |
| 2026-05-05 09:06 | 54.44902 | -1.53936 | 1605 ft | 96 kts | 45° |
| 2026-05-05 09:07 | 54.45319 | -1.53137 | 1557 ft | 86 kts | 44° |
| 2026-05-05 09:07 | 54.45724 | -1.52396 | 1467 ft | 85 kts | 42° |
| 2026-05-05 09:07 | 54.46153 | -1.51669 | 1357 ft | 85 kts | 39° |
| 2026-05-05 09:07 | 54.46593 | -1.50962 | 1188 ft | 89 kts | 43° |
| 2026-05-05 09:08 | 54.47009 | -1.50196 | 1090 ft | 88 kts | 45° |
| 2026-05-05 09:08 | 54.47429 | -1.49435 | 992 ft | 88 kts | 44° |
| 2026-05-05 09:08 | 54.47845 | -1.48668 | 876 ft | 90 kts | 45° |
| 2026-05-05 09:08 | 54.48264 | -1.47889 | 764 ft | 86 kts | 45° |
| 2026-05-05 09:09 | 54.48657 | -1.47155 | 595 ft | 80 kts | 44° |
| 2026-05-05 09:09 | 54.49022 | -1.46460 | 516 ft | 77 kts | 43° |
| 2026-05-05 09:09 | 54.49391 | -1.45797 | 398 ft | 77 kts | 45° |
| 2026-05-05 09:09 | 54.49748 | -1.45134 | 300 ft | 75 kts | 43° |
| 2026-05-05 09:10 | 54.50102 | -1.44471 | 203 ft | 76 kts | 45° |
| 2026-05-05 09:10 | 54.50430 | -1.43853 | 116 ft | 61 kts | 41° |
| 2026-05-05 09:10 | 54.50535 | -1.43677 | 113 ft | 4 kts | 9° |
| 2026-05-05 09:10 | 54.50625 | -1.43741 | 110 ft | 19 kts | 340° |
| 2026-05-05 09:11 | 54.50730 | -1.43778 | 109 ft | 12 kts | 2° |
| 2026-05-05 09:11 | 54.50812 | -1.43747 | 109 ft | 17 kts | 26° |
| 2026-05-05 09:11 | 54.50930 | -1.43588 | 109 ft | 24 kts | 49° |
| 2026-05-05 09:11 | 54.51006 | -1.43372 | 109 ft | 20 kts | 58° |
| 2026-05-05 09:12 | 54.51074 | -1.43189 | 109 ft | 12 kts | 38° |
| 2026-05-05 09:12 | 54.51138 | -1.43167 | 109 ft | 8 kts | 335° |
| 2026-05-05 09:12 | 54.51166 | -1.43196 | 109 ft | 0 kts | 328° |